createdAt,value
2022-09-15T00:03:40.895Z,2.80
2022-09-15T00:11:48.946Z,3.15
2022-09-15T00:19:54.397Z,2.55
2022-09-15T00:28:02.451Z,2.70
2022-09-15T00:36:10.358Z,2.65
2022-09-15T00:44:45.618Z,2.15
2022-09-15T00:52:57.322Z,2.60
2022-09-15T01:01:04.663Z,2.65
2022-09-15T01:09:18.520Z,2.25
2022-09-15T01:17:32.926Z,2.20
2022-09-15T01:26:05.658Z,2.05
2022-09-15T01:34:20.630Z,2.30
2022-09-15T01:42:28.429Z,2.70
2022-09-15T01:50:40.555Z,2.60
2022-09-15T01:58:46.034Z,2.50
2022-09-15T02:06:58.377Z,2.25
2022-09-15T02:15:08.805Z,2.50
2022-09-15T02:23:22.904Z,2.45
2022-09-15T02:31:30.174Z,2.80
2022-09-15T02:39:43.097Z,2.78
2022-09-15T02:47:49.666Z,2.95
2022-09-15T02:55:58.151Z,2.70
2022-09-15T03:04:04.804Z,3.13
2022-09-15T03:12:12.831Z,2.88
2022-09-15T03:20:22.674Z,2.70
2022-09-15T03:28:31.291Z,3.00
2022-09-15T03:36:36.877Z,2.90
2022-09-15T03:44:44.699Z,3.40
2022-09-15T03:52:49.978Z,2.70
2022-09-15T04:00:58.214Z,2.97
2022-09-15T04:09:03.563Z,2.70
2022-09-15T04:17:11.767Z,2.70
2022-09-15T04:25:17.201Z,2.90
2022-09-15T04:33:25.334Z,2.92
2022-09-15T04:41:31.392Z,3.00
2022-09-15T04:49:39.289Z,4.05
2022-09-15T04:57:44.580Z,3.40
2022-09-15T05:05:53.057Z,3.83
2022-09-15T05:13:58.285Z,3.92
2022-09-15T05:22:06.278Z,4.40
2022-09-15T05:38:41.791Z,6.05
2022-09-15T05:46:48.337Z,5.20
2022-09-15T05:54:59.189Z,5.43
2022-09-15T06:03:04.906Z,5.43
2022-09-15T06:11:15.717Z,4.72
2022-09-15T06:19:21.166Z,5.35
2022-09-15T06:27:29.287Z,6.05
2022-09-15T06:35:35.597Z,5.57
2022-09-15T06:43:43.764Z,4.40
2022-09-15T06:51:49.203Z,3.95
2022-09-15T06:59:57.090Z,4.10
2022-09-15T07:08:02.445Z,3.50
2022-09-15T07:16:12.830Z,3.53
2022-09-15T07:24:18.351Z,3.90
2022-09-15T07:32:26.307Z,4.97
2022-09-15T07:40:31.986Z,4.47
2022-09-15T07:48:39.918Z,4.07
2022-09-15T07:56:45.214Z,4.55
2022-09-15T08:04:53.270Z,4.63
2022-09-15T08:12:58.586Z,3.85
2022-09-15T08:21:07.794Z,3.13
2022-09-15T08:29:13.671Z,2.90
2022-09-15T08:37:22.289Z,2.83
2022-09-15T08:45:31.713Z,2.85
2022-09-15T08:53:46.104Z,3.60
2022-09-15T09:02:04.149Z,3.30
2022-09-15T09:10:18.369Z,3.55
2022-09-15T09:18:47.051Z,3.00
2022-09-15T09:26:58.655Z,3.38
2022-09-15T09:35:08.112Z,3.20
2022-09-15T09:43:16.097Z,3.67
2022-09-15T09:51:39.951Z,3.38
2022-09-15T09:59:49.537Z,3.33
2022-09-15T10:07:54.894Z,3.83
2022-09-15T10:16:05.236Z,4.40
2022-09-15T10:24:34.404Z,3.97
2022-09-15T10:32:43.405Z,3.63
2022-09-15T10:40:54.859Z,4.18
2022-09-15T10:49:16.392Z,3.40
2022-09-15T10:57:41.478Z,3.83
2022-09-15T11:06:04.158Z,3.45
2022-09-15T11:14:23.908Z,2.90
2022-09-15T11:22:37.607Z,2.78
2022-09-15T11:30:49.310Z,3.03
2022-09-15T11:39:02.582Z,3.28
2022-09-15T11:47:22.974Z,2.63
2022-09-15T11:55:37.346Z,2.83
2022-09-15T12:03:50.787Z,2.60
2022-09-15T12:12:04.554Z,2.88
2022-09-15T12:20:19.345Z,3.13
2022-09-15T12:28:42.577Z,3.00
2022-09-15T12:36:51.296Z,4.43
2022-09-15T12:45:01.152Z,3.00
2022-09-15T12:53:15.480Z,2.75
2022-09-15T13:01:53.758Z,3.90
2022-09-15T13:10:18.910Z,2.58
2022-09-15T13:18:28.167Z,2.97
2022-09-15T13:26:34.886Z,3.50
2022-09-15T13:35:22.611Z,3.20
2022-09-15T13:43:45.529Z,2.90
2022-09-15T13:52:02.485Z,2.67
2022-09-15T14:00:15.719Z,2.63
2022-09-15T14:08:30.433Z,2.90
2022-09-15T14:24:49.126Z,2.72
2022-09-15T14:32:57.139Z,2.83
2022-09-15T14:41:05.547Z,2.53
2022-09-15T14:49:14.678Z,3.20
2022-09-15T14:57:30.776Z,2.30
2022-09-15T15:05:40.806Z,2.25
2022-09-15T15:13:53.204Z,2.45
2022-09-15T15:30:48.552Z,3.22
2022-09-15T15:38:56.551Z,6.40
2022-09-15T15:47:25.722Z,3.28
2022-09-15T15:55:39.758Z,3.17
2022-09-15T16:03:47.752Z,3.75
2022-09-15T16:20:05.014Z,3.80
2022-09-15T16:28:10.318Z,4.50
2022-09-15T16:36:24.001Z,4.60
2022-09-15T16:44:29.361Z,5.10
2022-09-15T16:52:42.672Z,5.28
2022-09-15T17:00:49.418Z,5.10
2022-09-15T17:08:57.802Z,5.50
2022-09-15T17:17:03.333Z,5.78
2022-09-15T17:25:37.307Z,5.60
2022-09-15T17:33:43.159Z,5.63
2022-09-15T17:41:51.372Z,6.07
2022-09-15T17:49:56.919Z,5.65
2022-09-15T17:58:06.350Z,7.13
2022-09-15T18:06:13.483Z,9.00
2022-09-15T18:14:21.716Z,7.65
2022-09-15T18:22:29.780Z,7.55
2022-09-15T18:30:43.554Z,7.05
2022-09-15T18:38:48.953Z,8.55
2022-09-15T18:46:57.085Z,6.15
2022-09-15T18:55:02.494Z,7.63
2022-09-15T19:03:11.709Z,6.78
2022-09-15T19:11:17.443Z,6.75
2022-09-15T19:19:26.156Z,6.95
2022-09-15T19:27:33.564Z,8.23
2022-09-15T19:35:44.547Z,7.10
2022-09-15T19:43:49.861Z,6.70
2022-09-15T19:51:58.055Z,7.70
2022-09-15T20:00:03.410Z,7.32
2022-09-15T20:08:12.298Z,8.10
2022-09-15T20:16:19.884Z,8.45
2022-09-15T20:24:28.104Z,8.38
2022-09-15T20:32:34.646Z,7.53
2022-09-15T20:40:42.590Z,7.95
2022-09-15T20:48:48.742Z,6.65
2022-09-15T20:56:57.092Z,7.28
2022-09-15T21:05:02.357Z,8.35
2022-09-15T21:13:10.454Z,7.45
2022-09-15T21:21:17.389Z,5.60
2022-09-15T21:29:25.404Z,3.97
2022-09-15T21:37:32.145Z,3.00
2022-09-15T21:45:40.145Z,2.95
2022-09-15T21:53:46.155Z,2.85
2022-09-15T22:01:54.466Z,2.40
2022-09-15T22:09:59.738Z,2.25
2022-09-15T22:18:09.738Z,1.80
2022-09-15T22:26:18.159Z,1.80
2022-09-15T22:34:26.145Z,2.00
2022-09-15T22:42:31.508Z,1.70
2022-09-15T22:50:39.561Z,1.50
2022-09-15T22:58:46.657Z,1.77
2022-09-15T23:06:54.574Z,1.42
2022-09-15T23:15:04.021Z,1.10
2022-09-15T23:23:12.077Z,1.00
2022-09-15T23:31:18.203Z,1.15
2022-09-15T23:39:26.807Z,1.30
2022-09-15T23:47:32.153Z,1.23
2022-09-15T23:55:40.364Z,1.13
